Latest Weather Observations for Melbourne (Olympic Park)

IDV60901

Issued at 4:11 pm EST Sunday 11 April 2021 (issued every 10 minutes, with the page automatically refreshed every 10 minutes)

About weather observations | Map of Melbourne area stations | Latest observations for Melbourne area | Other Formats
Station Details ID: 086338 Name: MELBOURNE (OLYMPIC PARK) Lat: -37.83 Lon: 144.98 Height: 7.53 m
Data from the previous 72 hours. | See also: Recent months at Melbourne (Olympic Park)
Date/Time
EST
Temp
°C
App
Temp
°C
Dew
Point
°C
Rel
Hum
%
Delta-T
°C
Wind Press
QNH
hPa
Press
MSL
hPa
Rain since
9am
mm
Dir  Spd
km/h
Gust
km/h
Spd
kts
Gust
kts
11/04:00pm 12.7 8.1 5.6 62 3.3 SSW 19 37 10 20 1017.7 1017.7 2.4
11/03:30pm 12.6 9.3 6.2 65 3.0 SSW 13 30 7 16 1017.3 1017.3 2.4
11/03:00pm 14.1 9.5 5.5 56 4.0 SSW 19 35 10 19 1016.9 1016.9 2.4
11/02:30pm 13.6 8.4 5.3 57 3.9 SSW 22 39 12 21 1016.5 1016.5 2.4
11/02:00pm 12.7 8.2 6.3 65 3.0 SSW 19 39 10 21 1016.5 1016.5 2.4
11/01:30pm 12.2 7.4 5.6 64 3.1 SSW 20 39 11 21 1016.4 1016.4 2.2
11/01:07pm 13.4 7.6 4.3 54 4.2 SSW 24 52 13 28 1016.3 1016.3 2.0
11/01:00pm 14.3 9.2 5.9 57 4.0 SSW 22 44 12 24 1016.0 1016.0 2.0
11/12:30pm 14.0 9.0 4.6 53 4.3 SSW 20 44 11 24 1016.0 1016.0 2.0
11/12:00pm 13.6 9.1 6.0 60 3.6 SSW 19 35 10 19 1016.0 1016.0 1.8
11/11:30am 11.6 8.6 7.7 77 1.9 SSW 13 35 7 19 1015.9 1015.9 1.8
11/11:00am 11.8 10.0 7.9 77 1.9 SSW 7 20 4 11 1015.9 1015.9 0.6
11/10:30am 11.6 8.5 5.7 67 2.7 WSW 11 26 6 14 1015.7 1015.7 0.2
11/10:00am 11.1 8.2 6.3 72 2.2 W 11 22 6 12 1015.3 1015.3 0.2
11/09:30am 10.9 7.0 5.4 69 2.5 WSW 15 28 8 15 1015.5 1015.5 0.0
11/09:00am 9.8 6.7 5.6 75 1.9 WNW 11 20 6 11 1014.8 1014.8 3.4
11/08:30am 9.6 6.5 5.6 76 1.8 W 11 24 6 13 1014.6 1014.6 3.4
11/08:00am 9.0 6.3 5.4 78 1.6 WNW 9 15 5 8 1014.0 1014.0 3.2
11/07:30am 8.2 4.9 4.8 79 1.5 W 11 17 6 9 1013.8 1013.8 3.2
11/07:00am 8.4 4.7 4.6 77 1.7 WNW 13 28 7 15 1013.3 1013.3 2.6
11/06:30am 8.3 4.6 4.7 78 1.6 WNW 13 26 7 14 1012.9 1012.9 2.2
11/06:00am 8.1 5.2 4.5 78 1.6 W 9 24 5 13 1012.6 1012.6 2.2
11/05:30am 8.4 4.7 4.2 75 1.8 W 13 28 7 15 1012.2 1012.2 2.0
11/05:00am 8.3 4.5 3.9 74 1.9 WNW 13 24 7 13 1011.7 1011.7 2.0
11/04:30am 8.3 4.4 3.4 71 2.1 WNW 13 24 7 13 1011.3 1011.3 2.0
11/04:00am 8.6 4.7 3.2 69 2.3 W 13 32 7 17 1011.1 1011.1 1.8
11/03:30am 8.6 4.7 3.4 70 2.2 W 13 28 7 15 1010.8 1010.8 1.8
11/03:00am 8.6 5.2 4.2 74 1.9 W 11 20 6 11 1011.0 1011.0 1.8
11/02:30am 8.7 5.3 3.9 72 2.1 WNW 11 24 6 13 1010.9 1010.9 1.8
11/02:00am 8.8 5.0 3.8 71 2.2 W 13 24 7 13 1010.8 1010.8 1.8
11/01:30am 8.9 5.5 4.1 72 2.1 W 11 20 6 11 1011.1 1011.1 1.8
11/01:00am 8.8 5.8 4.0 72 2.1 WNW 9 17 5 9 1010.7 1010.7 1.8
11/12:30am 9.0 5.6 4.0 71 2.2 W 11 22 6 12 1010.7 1010.7 1.8
11/12:00am 9.2 5.8 4.0 70 2.3 WNW 11 24 6 13 1010.6 1010.6 1.8
 
Date/Time
EST
Temp
°C
App
Temp
°C
Dew
Point
°C
Rel
Hum
%
Delta-T
°C
Wind Press
QNH
hPa
Press
MSL
hPa
Rain since
9am
mm
Dir  Spd
km/h
Gust
km/h
Spd
kts
Gust
kts
10/11:30pm 9.4 5.7 4.4 71 2.2 WNW 13 26 7 14 1010.8 1010.8 1.8
10/11:00pm 9.4 6.5 4.6 72 2.1 WNW 9 15 5 8 1010.7 1010.7 1.8
10/10:30pm 9.6 6.0 4.8 72 2.1 WNW 13 20 7 11 1010.7 1010.7 1.8
10/10:00pm 9.9 5.9 5.1 72 2.2 NW 15 30 8 16 1010.5 1010.5 1.8
10/09:30pm 9.8 7.1 5.6 75 1.9 WNW 9 20 5 11 1010.4 1010.4 1.8
10/09:00pm 10.0 7.0 6.2 77 1.8 W 11 20 6 11 1010.8 1010.8 1.8
10/08:30pm 10.9 7.7 5.0 67 2.7 NW 11 20 6 11 1010.6 1010.6 1.2
10/08:00pm 10.8 7.8 4.3 64 2.9 W 9 17 5 9 1010.2 1010.2 1.2
10/07:30pm 10.6 7.6 3.9 63 3.0 W 9 24 5 13 1009.8 1009.8 1.2
10/07:00pm 10.8 7.5 4.5 65 2.8 W 11 26 6 14 1009.7 1009.7 1.2
10/06:30pm 10.7 6.8 5.3 69 2.5 W 15 32 8 17 1010.1 1010.1 1.2
10/06:00pm 12.5 9.6 4.5 58 3.7 W 9 20 5 11 1009.2 1009.2 1.2
10/05:30pm 12.8 9.1 4.5 57 3.8 W 13 30 7 16 1009.1 1009.1 1.2
10/05:00pm 13.4 9.6 6.0 61 3.5 WSW 15 32 8 17 1009.1 1009.1 1.2
10/04:30pm 12.8 9.1 6.2 64 3.1 W 15 33 8 18 1008.5 1008.5 1.2
10/04:00pm 15.7 12.0 4.4 47 5.3 WSW 13 30 7 16 1008.0 1008.0 0.8
10/03:30pm 15.6 12.0 4.9 49 5.0 SW 13 32 7 17 1007.9 1007.9 0.8
10/03:00pm 15.4 11.2 5.9 53 4.6 SW 17 28 9 15 1008.0 1008.0 0.8
10/02:30pm 17.7 13.7 5.0 43 6.1 WSW 15 30 8 16 1007.3 1007.3 0.8
10/02:00pm 17.4 12.9 4.0 41 6.3 W 17 35 9 19 1007.2 1007.2 0.8
10/01:30pm 17.5 13.2 5.1 44 5.9 WSW 17 35 9 19 1007.5 1007.5 0.8
10/01:00pm 15.8 11.9 7.1 56 4.3 W 17 35 9 19 1007.7 1007.7 0.8
10/12:30pm 15.2 12.3 9.8 70 2.8 W 15 35 8 19 1007.9 1007.9 0.8
10/12:00pm 15.2 12.4 10.0 71 2.7 W 15 24 8 13 1007.8 1007.8 0.8
10/11:30am 15.3 13.6 11.3 77 2.1 WSW 11 20 6 11 1007.6 1007.6 0.8
10/11:00am 14.2 12.8 12.1 87 1.1 W 11 28 6 15 1007.8 1007.8 0.8
10/10:30am 15.3 13.3 10.3 72 2.6 WNW 11 20 6 11 1007.6 1007.6 0.0
10/10:00am 16.5 14.0 9.7 64 3.6 NW 13 26 7 14 1007.5 1007.5 0.0
10/09:30am 15.2 12.3 9.6 69 2.9 NW 15 20 8 11 1007.5 1007.5 0.0
10/09:00am 14.1 11.8 8.9 71 2.6 WNW 11 24 6 13 1007.9 1007.9 0.2
10/08:30am 14.1 11.3 8.5 69 2.8 WNW 13 22 7 12 1007.9 1007.9 0.2
10/08:00am 14.2 11.6 7.7 65 3.2 NW 11 19 6 10 1007.6 1007.6 0.2
10/07:30am 13.9 11.7 7.7 66 3.1 NW 9 19 5 10 1007.5 1007.5 0.2
10/07:00am 13.7 11.4 7.5 66 3.0 NW 9 13 5 7 1007.2 1007.2 0.2
10/06:30am 13.6 11.2 6.9 64 3.2 NW 9 19 5 10 1007.3 1007.3 0.2
10/06:00am 13.6 11.6 6.9 64 3.3 NW 7 13 4 7 1007.2 1007.2 0.2
10/05:30am 13.6 11.1 6.7 63 3.3 WNW 9 20 5 11 1007.4 1007.4 0.2
10/05:00am 13.6 11.7 6.7 63 3.3 WNW 6 19 3 10 1007.5 1007.5 0.2
10/04:30am 13.7 11.1 6.3 61 3.5 WNW 9 13 5 7 1007.6 1007.6 0.2
10/04:00am 13.7 11.5 6.1 60 3.6 NW 7 13 4 7 1007.5 1007.5 0.2
10/03:30am 13.8 11.6 6.2 60 3.6 NW 7 15 4 8 1007.4 1007.4 0.2
10/03:00am 13.6 11.6 6.2 61 3.5 W 6 9 3 5 1007.8 1007.8 0.2
10/02:30am 13.6 11.4 6.2 61 3.5 W 7 15 4 8 1008.2 1008.2 0.2
10/02:00am 13.4 11.3 6.5 63 3.3 W 7 11 4 6 1008.4 1008.4 0.2
10/01:30am 13.2 11.6 6.3 63 3.3 WNW 4 9 2 5 1008.6 1008.6 0.2
10/01:00am 13.6 11.0 6.0 60 3.6 W 9 15 5 8 1008.7 1008.7 0.2
10/12:30am 13.9 12.6 6.0 59 3.8 WSW 2 7 1 4 1008.7 1008.7 0.2
10/12:00am 14.2 12.2 6.1 58 3.9 WSW 6 15 3 8 1009.0 1009.0 0.2
 
Date/Time
EST
Temp
°C
App
Temp
°C
Dew
Point
°C
Rel
Hum
%
Delta-T
°C
Wind Press
QNH
hPa
Press
MSL
hPa
Rain since
9am
mm
Dir  Spd
km/h
Gust
km/h
Spd
kts
Gust
kts
09/11:30pm 14.3 12.7 6.2 58 3.9 W 4 13 2 7 1009.4 1009.4 0.2
09/11:00pm 14.5 12.5 6.3 58 4.0 WSW 6 13 3 7 1009.6 1009.6 0.2
09/10:30pm 14.7 12.5 6.3 57 4.0 W 7 17 4 9 1010.0 1010.0 0.2
09/10:00pm 14.8 13.1 7.4 61 3.7 WSW 6 15 3 8 1010.0 1010.0 0.2
09/09:30pm 15.0 13.7 7.5 61 3.7 W 4 9 2 5 1010.1 1010.1 0.2
09/09:00pm 15.1 13.2 6.9 58 4.0 SW 6 11 3 6 1010.1 1010.1 0.2
09/08:30pm 15.1 13.3 7.2 59 3.9 SSW 6 9 3 5 1010.1 1010.1 0.2
09/08:00pm 15.1 13.2 7.4 60 3.8 SSW 7 11 4 6 1009.9 1009.9 0.2
09/07:30pm 15.0 13.2 7.1 59 3.9 SSW 6 13 3 7 1009.7 1009.7 0.2
09/07:00pm 14.8 13.4 7.1 60 3.8 S 4 13 2 7 1009.6 1009.6 0.2
09/06:30pm 15.1 12.7 6.9 58 4.0 S 9 15 5 8 1009.4 1009.4 0.2
09/06:00pm 15.3 12.9 7.1 58 4.0 S 9 24 5 13 1009.3 1009.3 0.2
09/05:30pm 15.5 13.1 7.0 57 4.2 S 9 19 5 10 1009.3 1009.3 0.2
09/05:00pm 15.6 13.2 7.1 57 4.2 S 9 19 5 10 1009.3 1009.3 0.2
09/04:30pm 15.9 12.8 7.1 56 4.3 SSW 13 24 7 13 1009.3 1009.3 0.2
09/04:00pm 16.6 14.1 8.3 58 4.2 S 11 19 6 10 1009.2 1009.2 0.2
09/03:30pm 16.7 13.0 7.9 56 4.4 SSW 17 26 9 14 1009.4 1009.4 0.2
09/03:00pm 15.7 12.1 8.4 62 3.7 S 17 32 9 17 1009.6 1009.6 0.2
09/02:30pm 14.6 12.1 9.8 73 2.5 S 13 28 7 15 1009.5 1009.5 0.0
09/02:00pm 15.4 12.7 9.1 66 3.2 SSW 13 26 7 14 1009.4 1009.4 0.0
09/01:30pm 15.0 11.8 9.8 71 2.7 S 17 26 9 14 1009.5 1009.5 0.0
09/01:00pm 16.0 13.8 9.4 65 3.4 SSW 11 22 6 12 1009.5 1009.5 0.0
09/12:30pm 15.8 13.7 9.7 67 3.2 S 11 19 6 10 1009.9 1009.9 0.0
09/12:00pm 15.4 13.0 10.0 70 2.8 SSW 13 24 7 13 1010.1 1010.1 0.0
09/11:30am 15.4 12.5 9.7 69 3.0 S 15 32 8 17 1010.1 1010.1 0.0
09/11:00am 16.0 12.4 8.5 61 3.8 SSW 17 30 9 16 1010.0 1010.0 0.0
09/10:30am 16.4 13.3 7.1 54 4.6 SW 13 28 7 15 1009.7 1009.7 0.0
09/10:00am 16.2 13.4 6.9 54 4.6 SW 11 28 6 15 1009.7 1009.7 0.0
09/09:30am 16.2 13.9 7.4 56 4.4 WSW 9 20 5 11 1009.8 1009.8 0.0
09/09:00am 15.2 12.1 7.3 59 3.9 W 13 28 7 15 1010.0 1010.0 6.2
09/08:30am 14.9 12.7 7.9 63 3.5 W 9 17 5 9 1009.7 1009.7 6.2
09/08:00am 14.6 12.5 8.3 66 3.2 W 9 24 5 13 1009.4 1009.4 6.2
09/07:30am 14.0 11.6 8.8 71 2.6 W 11 20 6 11 1009.0 1009.0 6.2
09/07:00am 14.0 11.3 9.0 72 2.5 W 13 20 7 11 1008.5 1008.5 6.2
09/06:30am 14.4 12.7 10.0 75 2.3 W 9 15 5 8 1008.0 1008.0 6.2
09/06:00am 14.6 13.2 10.8 78 2.0 W 9 20 5 11 1007.7 1007.7 6.2
09/05:30am 14.7 12.6 12.4 86 1.3 W 15 24 8 13 1007.5 1007.5 6.2
09/05:00am 15.1 13.4 12.4 84 1.5 SW 13 28 7 15 1007.1 1007.1 6.2
09/04:30am 15.0 13.3 12.5 85 1.4 SW 13 33 7 18 1006.9 1006.9 6.2
09/04:00am 14.9 13.6 13.8 93 0.6 SSW 13 24 7 13 1006.7 1006.7 6.0
09/03:30am 14.7 13.2 14.1 96 0.3 SSW 15 30 8 16 1006.3 1006.3 6.0
09/03:20am 15.0 14.0 14.7 98 0.2 S 13 35 7 19 1006.2 1006.2 5.6
09/03:02am 15.5 14.5 14.7 95 0.5 SSW 13 28 7 15 1005.8 1005.8 4.8
09/03:00am 15.7 15.1 14.7 94 0.6 SSW 11 28 6 15 1005.8 1005.8 4.4
09/02:30am 16.6 18.0 15.5 93 0.6 SW 2 7 1 4 1005.6 1005.6 3.4
09/02:00am 16.7 18.5 15.4 92 0.8 CALM 0 7 0 4 1005.9 1005.9 3.0
09/01:30am 17.3 18.4 14.6 84 1.6 WSW 2 9 1 5 1006.5 1006.5 1.0
09/01:00am 18.7 18.0 13.1 70 3.2 SW 9 32 5 17 1006.5 1006.5 0.0
09/12:30am 19.9 18.7 11.7 59 4.5 SW 9 17 5 9 1005.9 1005.9 0.0
09/12:00am 19.8 19.9 11.6 59 4.5 SW 2 9 1 5 1005.6 1005.6 0.0
 
Date/Time
EST
Temp
°C
App
Temp
°C
Dew
Point
°C
Rel
Hum
%
Delta-T
°C
Wind Press
QNH
hPa
Press
MSL
hPa
Rain since
9am
mm
Dir  Spd
km/h
Gust
km/h
Spd
kts
Gust
kts
08/11:30pm 20.2 19.4 10.9 55 5.1 SW 6 13 3 7 1005.3 1005.3 0.0
08/11:00pm 20.6 19.0 10.1 51 5.7 SW 9 17 5 9 1005.6 1005.6 0.0
08/10:30pm 20.5 20.3 13.0 62 4.3 SSW 6 13 3 7 1005.9 1005.9 0.0
08/10:00pm 20.6 20.9 12.3 59 4.7 SW 2 6 1 3 1005.9 1005.9 0.0
08/09:30pm 21.1 21.1 12.5 58 4.9 S 4 9 2 5 1005.9 1005.9 0.0
08/09:00pm 21.8 19.9 11.8 53 5.6 SSW 13 24 7 13 1006.0 1006.0 0.0
08/08:30pm 23.8 21.8 8.6 38 8.1 SW 9 26 5 14 1005.7 1005.7 0.0
08/08:00pm 24.9 22.2 5.7 29 9.8 N 9 11 5 6 1004.9 1004.9 0.0
08/07:30pm 25.1 22.1 5.8 29 9.9 N 11 17 6 9 1005.1 1005.1 0.0
08/07:00pm 25.3 22.1 5.0 27 10.3 N 11 15 6 8 1005.1 1005.1 0.0
08/06:30pm 25.6 22.7 4.7 26 10.5 N 9 13 5 7 1004.8 1004.8 0.0
08/06:00pm 25.5 23.3 5.1 27 10.4 NNW 6 15 3 8 1004.9 1004.9 0.0
08/05:30pm 26.9 23.0 5.2 25 11.1 N 15 20 8 11 1004.9 1004.9 0.0
08/05:00pm 27.8 23.3 4.2 22 12.0 NNW 17 28 9 15 1004.8 1004.8 0.0
08/04:30pm 28.5 23.9 5.4 23 12.0 NNW 19 32 10 17 1004.6 1004.6 0.0

Latest Capital City Observations: Canberra | Sydney | Melbourne | Brisbane | Adelaide | Perth | Hobart | Darwin

Other formats

Comma delimited format used in spreadsheet applications
http://www.bom.gov.au/fwo/IDV60901/IDV60901.95936.axf

JavaScript Object Notation format (JSON) in row-major order
http://www.bom.gov.au/fwo/IDV60901/IDV60901.95936.json

Data quality

Most of these data are generated automatically and are frequently updated. Quality checks on data are not normally performed. It is possible for incorrect values to appear. Refer to information at About Latest Weather Observations and please check the disclaimer before using these data.